createdAt,value
2022-09-12T00:00:29.629Z,84.30
2022-09-12T00:01:31.417Z,84.37
2022-09-12T00:02:33.109Z,84.46
2022-09-12T00:03:34.770Z,84.37
2022-09-12T00:04:36.423Z,84.41
2022-09-12T00:05:42.536Z,84.44
2022-09-12T00:06:44.097Z,84.36
2022-09-12T00:07:45.819Z,84.51
2022-09-12T00:08:47.645Z,84.62
2022-09-12T00:09:49.458Z,84.71
2022-09-12T00:10:51.037Z,84.88
2022-09-12T00:11:52.679Z,84.88
2022-09-12T00:12:54.568Z,84.83
2022-09-12T00:14:00.146Z,85.05
2022-09-12T00:15:01.731Z,85.01
2022-09-12T00:16:03.423Z,84.98
2022-09-12T00:17:05.076Z,84.91
2022-09-12T00:18:07.099Z,84.78
2022-09-12T00:19:08.925Z,84.62
2022-09-12T00:20:10.802Z,84.56
2022-09-12T00:21:12.383Z,84.36
2022-09-12T00:22:13.944Z,84.33
2022-09-12T00:23:15.540Z,84.20
2022-09-12T00:24:17.204Z,84.10
2022-09-12T00:25:19.234Z,83.97
2022-09-12T00:26:21.078Z,83.93
2022-09-12T00:27:22.670Z,83.99
2022-09-12T00:28:24.254Z,83.99
2022-09-12T00:29:25.936Z,84.00
2022-09-12T00:30:27.520Z,84.04
2022-09-12T00:31:29.396Z,84.05
2022-09-12T00:32:31.331Z,84.03
2022-09-12T00:33:32.948Z,84.11
2022-09-12T00:34:34.554Z,84.09
2022-09-12T00:35:42.293Z,84.12
2022-09-12T00:36:43.982Z,84.16
2022-09-12T00:37:45.557Z,84.22
2022-09-12T00:38:47.936Z,84.31
2022-09-12T00:39:49.593Z,84.45
2022-09-12T00:40:51.293Z,84.46
2022-09-12T00:41:52.934Z,84.47
2022-09-12T00:42:54.703Z,84.50
2022-09-12T00:43:58.622Z,84.53
2022-09-12T00:45:00.206Z,84.53
2022-09-12T00:46:29.335Z,84.76
2022-09-12T00:47:31.147Z,84.84
2022-09-12T00:48:35.611Z,84.92
2022-09-12T00:49:58.487Z,84.89
2022-09-12T00:51:00.072Z,84.86
2022-09-12T00:52:13.874Z,84.96
2022-09-12T00:53:15.429Z,84.92
2022-09-12T00:54:20.460Z,84.86
2022-09-12T00:55:27.870Z,84.64
2022-09-12T00:56:29.520Z,84.83
2022-09-12T00:57:44.004Z,84.88
2022-09-12T00:58:51.701Z,84.75
2022-09-12T00:59:55.601Z,84.64
2022-09-12T01:00:57.935Z,84.49
2022-09-12T01:01:59.757Z,84.48
2022-09-12T01:03:04.653Z,84.26
2022-09-12T01:04:06.204Z,84.29
2022-09-12T01:05:08.408Z,84.23
2022-09-12T01:06:15.480Z,84.15
2022-09-12T01:07:17.154Z,84.10
2022-09-12T01:08:18.706Z,84.11
2022-09-12T01:09:21.846Z,84.04
2022-09-12T01:10:23.448Z,84.01
2022-09-12T01:11:25.048Z,83.87
2022-09-12T01:12:26.674Z,83.71
2022-09-12T01:13:28.449Z,83.82
2022-09-12T01:14:30.287Z,83.94
2022-09-12T01:15:31.907Z,83.94
2022-09-12T01:16:37.271Z,83.93
2022-09-12T01:17:45.718Z,83.97
2022-09-12T01:18:56.156Z,84.04
2022-09-12T01:20:11.255Z,84.14
2022-09-12T01:21:45.665Z,84.44
2022-09-12T01:22:47.182Z,84.32
2022-09-12T01:23:51.744Z,84.35
2022-09-12T01:25:14.795Z,84.40
2022-09-12T01:26:41.197Z,84.51
2022-09-12T01:27:50.821Z,84.61
2022-09-12T01:29:11.263Z,84.81
2022-09-12T01:30:23.684Z,84.75
2022-09-12T01:31:50.263Z,84.88
2022-09-12T01:32:59.536Z,85.01
2022-09-12T01:34:28.164Z,84.89
2022-09-12T01:35:50.530Z,84.89
2022-09-12T01:37:20.128Z,84.95
2022-09-12T01:38:44.508Z,84.85
2022-09-12T01:39:57.208Z,84.86
2022-09-12T01:41:04.488Z,84.89
2022-09-12T01:42:06.522Z,84.78
2022-09-12T01:43:23.591Z,84.97
2022-09-12T01:44:45.187Z,85.06
2022-09-12T01:45:53.710Z,84.91
2022-09-12T01:47:04.031Z,84.92
2022-09-12T01:48:14.776Z,84.91
2022-09-12T01:49:24.765Z,84.82
2022-09-12T01:50:28.605Z,84.87
2022-09-12T01:51:40.067Z,84.76
2022-09-12T01:52:44.341Z,85.00
2022-09-12T01:53:51.402Z,85.23
2022-09-12T01:55:09.728Z,85.16
2022-09-12T01:56:20.313Z,85.12
2022-09-12T01:57:37.304Z,85.18
2022-09-12T01:59:05.590Z,85.04
2022-09-12T02:00:09.992Z,85.00
2022-09-12T02:01:16.645Z,85.08
2022-09-12T02:02:22.232Z,85.22
2022-09-12T02:03:25.418Z,85.18
2022-09-12T02:04:34.256Z,85.18
2022-09-12T02:05:48.571Z,85.28
2022-09-12T02:06:54.658Z,85.17
2022-09-12T02:08:20.632Z,85.12
2022-09-12T02:09:26.039Z,85.08
2022-09-12T02:10:32.671Z,85.14
2022-09-12T02:11:34.691Z,85.11
2022-09-12T02:12:40.647Z,85.16
2022-09-12T02:13:54.007Z,85.35
2022-09-12T02:15:01.083Z,85.35
2022-09-12T02:16:19.543Z,85.47
2022-09-12T02:17:23.021Z,85.51
2022-09-12T02:18:24.597Z,85.81
2022-09-12T02:19:29.525Z,85.76
2022-09-12T02:20:49.079Z,85.79
2022-09-12T02:21:55.936Z,85.77
2022-09-12T02:22:57.912Z,85.95
2022-09-12T02:24:00.085Z,85.85
2022-09-12T02:25:01.686Z,86.07
2022-09-12T02:26:11.291Z,86.02
2022-09-12T02:27:18.386Z,85.94
2022-09-12T02:28:23.660Z,86.02
2022-09-12T02:29:25.263Z,86.17
2022-09-12T02:30:26.881Z,86.27
2022-09-12T02:31:40.678Z,86.40
2022-09-12T02:32:54.190Z,86.30
2022-09-12T02:34:25.025Z,86.18
2022-09-12T02:35:40.362Z,86.18
2022-09-12T02:36:50.559Z,86.09
2022-09-12T02:38:00.380Z,85.89
2022-09-12T02:39:01.990Z,85.88
2022-09-12T02:40:03.800Z,85.76
2022-09-12T02:41:05.549Z,85.67
2022-09-12T02:42:07.146Z,85.60
2022-09-12T02:43:08.708Z,85.63
2022-09-12T02:44:10.320Z,85.39
2022-09-12T02:45:12.581Z,85.40
2022-09-12T02:46:18.745Z,85.45
2022-09-12T02:47:26.980Z,85.33
2022-09-12T02:48:31.029Z,85.28
2022-09-12T02:49:32.583Z,85.18
2022-09-12T02:50:34.215Z,85.04
2022-09-12T02:51:35.817Z,85.23
2022-09-12T02:52:37.519Z,85.35
2022-09-12T02:53:39.145Z,85.51
2022-09-12T02:54:40.721Z,85.47
2022-09-12T02:55:42.399Z,85.37
2022-09-12T02:56:44.752Z,85.30
2022-09-12T02:57:46.397Z,85.31
2022-09-12T02:58:47.986Z,85.19
2022-09-12T02:59:50.067Z,85.16
2022-09-12T03:01:03.517Z,85.05
2022-09-12T03:02:32.780Z,85.06
2022-09-12T03:03:51.792Z,85.09
2022-09-12T03:05:15.129Z,85.16
2022-09-12T03:06:22.097Z,85.09
2022-09-12T03:07:29.668Z,85.10
2022-09-12T03:08:40.788Z,85.03
2022-09-12T03:09:58.474Z,84.97
2022-09-12T03:11:03.108Z,85.00
2022-09-12T03:12:28.815Z,84.91
2022-09-12T03:14:02.558Z,85.00
2022-09-12T03:15:04.118Z,84.89
2022-09-12T03:16:08.442Z,84.85
2022-09-12T03:17:13.425Z,84.87
2022-09-12T03:18:33.213Z,84.85
2022-09-12T03:19:53.795Z,84.81
2022-09-12T03:21:32.091Z,84.71
2022-09-12T03:22:51.584Z,84.57
2022-09-12T03:24:29.523Z,84.55
2022-09-12T03:25:32.966Z,84.48
2022-09-12T03:26:35.254Z,84.52
2022-09-12T03:27:39.156Z,84.39
2022-09-12T03:28:40.761Z,84.37
2022-09-12T03:29:42.328Z,84.38
2022-09-12T03:30:48.333Z,84.31
2022-09-12T03:31:52.558Z,84.29
2022-09-12T03:32:54.340Z,84.21
2022-09-12T03:33:55.948Z,84.22
2022-09-12T03:34:57.500Z,84.24
2022-09-12T03:35:59.069Z,84.21
2022-09-12T03:37:00.700Z,84.29
2022-09-12T03:38:02.270Z,84.33
2022-09-12T03:39:03.944Z,84.47
2022-09-12T03:40:06.341Z,84.32
2022-09-12T03:41:07.973Z,84.25
2022-09-12T03:42:09.607Z,84.33
2022-09-12T03:43:11.246Z,84.28
2022-09-12T03:44:12.813Z,84.32
2022-09-12T03:45:14.423Z,84.24
2022-09-12T03:46:15.982Z,84.21
2022-09-12T03:47:17.583Z,84.19
2022-09-12T03:48:19.148Z,84.15
2022-09-12T03:49:20.750Z,84.14
2022-09-12T03:50:22.419Z,84.21
2022-09-12T03:51:23.994Z,84.20
2022-09-12T03:52:25.588Z,84.15
2022-09-12T03:53:27.144Z,84.08
2022-09-12T03:54:28.813Z,84.09
2022-09-12T03:55:31.159Z,84.03
2022-09-12T03:56:32.785Z,84.14
2022-09-12T03:57:34.351Z,84.11
2022-09-12T03:58:36.492Z,84.31
2022-09-12T03:59:38.189Z,84.30
2022-09-12T04:00:40.196Z,84.39
2022-09-12T04:01:42.398Z,84.43
2022-09-12T04:02:43.955Z,84.53
2022-09-12T04:03:47.238Z,84.51
2022-09-12T04:04:48.982Z,84.42
2022-09-12T04:05:50.627Z,84.42
2022-09-12T04:06:52.179Z,84.45
2022-09-12T04:07:53.744Z,84.57
2022-09-12T04:08:55.931Z,84.56
2022-09-12T04:09:57.620Z,84.49
2022-09-12T04:11:06.415Z,84.53
2022-09-12T04:12:08.071Z,84.68
2022-09-12T04:13:10.207Z,84.70
2022-09-12T04:14:11.846Z,84.62
2022-09-12T04:15:13.481Z,84.72
2022-09-12T04:16:15.575Z,84.73
2022-09-12T04:17:17.180Z,84.78
2022-09-12T04:18:18.735Z,84.74
2022-09-12T04:19:20.364Z,84.79
2022-09-12T04:20:21.986Z,84.80
2022-09-12T04:21:23.566Z,84.71
2022-09-12T04:22:25.144Z,84.67
2022-09-12T04:23:26.777Z,84.66
2022-09-12T04:24:28.366Z,84.68
2022-09-12T04:25:31.467Z,84.57
2022-09-12T04:26:33.086Z,84.52
2022-09-12T04:27:34.676Z,84.42
2022-09-12T04:28:37.051Z,84.16
2022-09-12T04:29:38.618Z,84.14
2022-09-12T04:30:40.272Z,84.13
2022-09-12T04:31:42.099Z,83.99
2022-09-12T04:32:43.706Z,83.92
2022-09-12T04:33:45.493Z,84.00
2022-09-12T04:34:47.125Z,84.04
2022-09-12T04:35:48.808Z,83.92
2022-09-12T04:36:50.407Z,83.81
2022-09-12T04:37:52.047Z,83.86
2022-09-12T04:38:53.719Z,83.82
2022-09-12T04:39:57.882Z,83.86
2022-09-12T04:40:59.709Z,83.91
2022-09-12T04:42:01.276Z,83.88
2022-09-12T04:43:03.152Z,83.84
2022-09-12T04:44:07.358Z,84.04
2022-09-12T04:45:09.316Z,83.94
2022-09-12T04:46:11.444Z,83.86
2022-09-12T04:47:13.130Z,83.79
2022-09-12T04:48:15.170Z,83.76
2022-09-12T04:49:17.483Z,83.82
2022-09-12T04:50:19.211Z,83.70
2022-09-12T04:51:22.729Z,83.61
2022-09-12T04:52:24.322Z,83.60
2022-09-12T04:53:25.906Z,83.72
2022-09-12T04:54:27.482Z,83.99
2022-09-12T04:55:29.238Z,83.96
2022-09-12T04:56:31.115Z,84.00
2022-09-12T04:57:32.753Z,84.09
2022-09-12T04:58:34.523Z,84.22
2022-09-12T04:59:36.107Z,84.40
2022-09-12T05:00:38.005Z,84.50
2022-09-12T05:01:39.721Z,84.48
2022-09-12T05:02:42.026Z,84.51
2022-09-12T05:03:45.235Z,84.50
2022-09-12T05:04:46.984Z,84.51
2022-09-12T05:05:48.727Z,84.50
2022-09-12T05:06:51.519Z,84.41
2022-09-12T05:07:53.117Z,84.32
2022-09-12T05:08:56.059Z,84.10
2022-09-12T05:09:57.933Z,83.91
2022-09-12T05:11:05.798Z,83.98
2022-09-12T05:12:08.085Z,84.08
2022-09-12T05:13:09.863Z,84.03
2022-09-12T05:14:11.633Z,83.90
2022-09-12T05:15:13.220Z,83.86
2022-09-12T05:16:16.190Z,83.85
2022-09-12T05:17:17.799Z,83.77
2022-09-12T05:18:19.439Z,83.83
2022-09-12T05:19:21.012Z,83.72
2022-09-12T05:20:22.603Z,83.70
2022-09-12T05:21:24.462Z,83.58
2022-09-12T05:22:26.085Z,83.27
2022-09-12T05:23:28.274Z,83.10
2022-09-12T05:24:30.201Z,83.06
2022-09-12T05:25:31.891Z,82.96
2022-09-12T05:26:33.529Z,83.09
2022-09-12T05:27:35.275Z,83.00
2022-09-12T05:28:37.584Z,83.00
2022-09-12T05:29:39.147Z,82.86
2022-09-12T05:30:40.792Z,82.92
2022-09-12T05:31:42.379Z,82.72
2022-09-12T05:32:44.008Z,82.44
2022-09-12T05:33:46.947Z,82.48
2022-09-12T05:34:48.594Z,82.56
2022-09-12T05:35:53.161Z,82.33
2022-09-12T05:36:54.720Z,82.54
2022-09-12T05:37:56.339Z,82.62
2022-09-12T05:38:59.826Z,82.14
2022-09-12T05:40:05.113Z,82.11
2022-09-12T05:41:07.765Z,81.35
2022-09-12T05:42:09.321Z,80.22
2022-09-12T05:43:12.503Z,78.95
2022-09-12T05:44:14.366Z,76.74
2022-09-12T05:45:16.838Z,75.47
2022-09-12T05:46:19.933Z,73.81
2022-09-12T05:47:21.664Z,72.32
2022-09-12T05:48:24.286Z,70.89
2022-09-12T05:49:26.213Z,70.19
2022-09-12T05:50:27.777Z,69.91
2022-09-12T05:51:31.095Z,69.99
2022-09-12T05:52:32.787Z,70.40
2022-09-12T05:53:34.620Z,70.05
2022-09-12T05:54:36.243Z,70.03
2022-09-12T05:55:37.889Z,69.52
2022-09-12T05:56:41.013Z,70.13
2022-09-12T05:57:46.137Z,70.47
2022-09-12T05:58:48.643Z,70.51
2022-09-12T05:59:50.904Z,71.10
2022-09-12T06:00:52.556Z,71.89
2022-09-12T06:01:54.157Z,71.78
2022-09-12T06:02:56.157Z,72.20
2022-09-12T06:04:00.788Z,71.99
2022-09-12T06:05:02.437Z,72.10
2022-09-12T06:06:05.373Z,72.06
2022-09-12T06:07:07.027Z,72.04
2022-09-12T06:08:08.607Z,71.85
2022-09-12T06:09:10.311Z,72.59
2022-09-12T06:10:12.055Z,72.73
2022-09-12T06:11:15.368Z,73.12
2022-09-12T06:12:16.930Z,73.06
2022-09-12T06:13:18.706Z,73.00
2022-09-12T06:14:20.736Z,72.86
2022-09-12T06:15:22.922Z,72.74
2022-09-12T06:16:26.294Z,72.63
2022-09-12T06:17:27.918Z,72.42
2022-09-12T06:18:29.496Z,72.36
2022-09-12T06:19:31.178Z,71.86
2022-09-12T06:20:32.742Z,71.95
2022-09-12T06:21:37.856Z,71.99
2022-09-12T06:22:39.510Z,72.38
2022-09-12T06:23:41.492Z,72.59
2022-09-12T06:24:43.623Z,72.41
2022-09-12T06:25:49.528Z,73.11
2022-09-12T06:26:52.851Z,73.11
2022-09-12T06:27:54.488Z,72.92
2022-09-12T06:28:57.180Z,73.19
2022-09-12T06:29:59.728Z,73.66
2022-09-12T06:31:12.464Z,73.97
2022-09-12T06:32:14.159Z,74.38
2022-09-12T06:33:15.838Z,74.43
2022-09-12T06:34:17.494Z,74.59
2022-09-12T06:35:19.099Z,74.44
2022-09-12T06:36:25.309Z,74.23
2022-09-12T06:37:26.882Z,74.23
2022-09-12T06:38:28.474Z,74.63
2022-09-12T06:39:31.648Z,74.53
2022-09-12T06:40:33.259Z,74.62
2022-09-12T06:41:34.984Z,74.56
2022-09-12T06:42:36.559Z,74.12
2022-09-12T06:43:38.847Z,74.19
2022-09-12T06:44:41.388Z,73.93
2022-09-12T06:45:49.381Z,73.60
2022-09-12T06:46:51.073Z,73.40
2022-09-12T06:47:52.649Z,73.79
2022-09-12T06:48:56.119Z,73.96
2022-09-12T06:49:57.746Z,74.13
2022-09-12T06:51:04.462Z,73.19
2022-09-12T06:52:07.325Z,72.92
2022-09-12T06:53:08.951Z,71.84
2022-09-12T06:54:14.278Z,72.32
2022-09-12T06:55:19.838Z,72.01
2022-09-12T06:56:23.904Z,72.01
2022-09-12T06:57:28.122Z,72.19
2022-09-12T06:58:29.852Z,72.45
2022-09-12T06:59:31.604Z,72.25
2022-09-12T07:00:33.418Z,71.85
2022-09-12T07:01:35.135Z,71.90
2022-09-12T07:02:36.833Z,71.64
2022-09-12T07:03:38.786Z,71.11
2022-09-12T07:04:40.465Z,70.59
2022-09-12T07:05:42.175Z,70.80
2022-09-12T07:06:44.967Z,71.08
2022-09-12T07:07:46.578Z,71.27
2022-09-12T07:08:48.267Z,71.02
2022-09-12T07:09:50.434Z,70.83
2022-09-12T07:10:52.023Z,70.51
2022-09-12T07:11:53.611Z,70.40
2022-09-12T07:12:55.183Z,70.85
2022-09-12T07:13:57.993Z,70.33
2022-09-12T07:14:59.648Z,70.49
2022-09-12T07:16:05.497Z,70.07
2022-09-12T07:17:07.470Z,69.92
2022-09-12T07:18:09.549Z,69.90
2022-09-12T07:19:11.402Z,69.49
2022-09-12T07:20:13.083Z,69.34
2022-09-12T07:21:14.836Z,69.59
2022-09-12T07:22:16.433Z,69.62
2022-09-12T07:23:18.060Z,69.81
2022-09-12T07:24:19.697Z,69.49
2022-09-12T07:25:21.254Z,69.40
2022-09-12T07:26:22.801Z,68.71
2022-09-12T07:27:24.430Z,68.79
2022-09-12T07:28:27.289Z,68.81
2022-09-12T07:29:37.690Z,68.29
2022-09-12T07:30:39.650Z,68.40
2022-09-12T07:31:41.246Z,68.58
2022-09-12T07:32:42.818Z,68.34
2022-09-12T07:33:44.701Z,68.13
2022-09-12T07:34:46.452Z,68.22
2022-09-12T07:35:48.112Z,68.05
2022-09-12T07:36:49.703Z,68.03
2022-09-12T07:37:51.289Z,68.28
2022-09-12T07:38:57.578Z,68.12
2022-09-12T07:39:59.962Z,68.28
2022-09-12T07:41:01.907Z,67.89
2022-09-12T07:42:03.533Z,67.51
2022-09-12T07:43:05.951Z,67.78
2022-09-12T07:44:07.660Z,66.82
2022-09-12T07:45:10.387Z,66.99
2022-09-12T07:46:12.223Z,66.90
2022-09-12T07:47:13.844Z,67.70
2022-09-12T07:48:15.444Z,67.62
2022-09-12T07:49:17.079Z,67.88
2022-09-12T07:50:18.675Z,67.00
2022-09-12T07:51:20.309Z,67.31
2022-09-12T07:52:21.873Z,64.92
2022-09-12T07:53:23.445Z,65.93
2022-09-12T07:54:25.103Z,66.47
2022-09-12T07:55:26.718Z,67.01
2022-09-12T07:56:32.690Z,66.69
2022-09-12T07:57:36.222Z,66.79
2022-09-12T07:58:38.546Z,66.06
2022-09-12T07:59:52.586Z,65.20
2022-09-12T08:00:55.055Z,64.88
2022-09-12T08:01:56.621Z,65.25
2022-09-12T08:02:58.181Z,64.84
2022-09-12T08:04:00.064Z,65.02
2022-09-12T08:05:02.610Z,64.37
2022-09-12T08:06:06.924Z,64.88
2022-09-12T08:07:09.125Z,63.65
2022-09-12T08:08:11.078Z,64.66
2022-09-12T08:09:13.109Z,63.89
2022-09-12T08:10:16.388Z,63.26
2022-09-12T08:11:19.940Z,63.31
2022-09-12T08:12:21.661Z,62.96
2022-09-12T08:13:23.544Z,63.14
2022-09-12T08:14:25.730Z,63.54
2022-09-12T08:15:27.445Z,64.07
2022-09-12T08:16:31.217Z,63.63
2022-09-12T08:17:32.965Z,63.81
2022-09-12T08:18:35.861Z,63.36
2022-09-12T08:19:38.432Z,63.08
2022-09-12T08:20:40.147Z,63.89
2022-09-12T08:21:41.720Z,63.41
2022-09-12T08:22:43.427Z,62.92
2022-09-12T08:23:45.158Z,62.68
2022-09-12T08:24:46.822Z,62.82
2022-09-12T08:25:48.436Z,62.73
2022-09-12T08:26:50.039Z,63.05
2022-09-12T08:27:52.208Z,63.38
2022-09-12T08:28:53.809Z,61.75
2022-09-12T08:29:55.672Z,62.26
2022-09-12T08:31:12.040Z,61.01
2022-09-12T08:32:13.677Z,61.23
2022-09-12T08:33:15.386Z,61.29
2022-09-12T08:34:19.179Z,61.23
2022-09-12T08:35:20.931Z,60.74
2022-09-12T08:36:24.354Z,60.44
2022-09-12T08:37:25.953Z,60.61
2022-09-12T08:38:27.491Z,60.51
2022-09-12T08:39:29.069Z,61.24
2022-09-12T08:40:30.717Z,60.60
2022-09-12T08:41:39.067Z,60.44
2022-09-12T08:43:31.595Z,59.60
2022-09-12T08:45:05.487Z,60.92
2022-09-12T08:46:10.798Z,61.80
2022-09-12T08:47:24.507Z,61.23
2022-09-12T08:48:26.092Z,61.58
2022-09-12T08:49:29.566Z,61.26
2022-09-12T08:50:32.594Z,60.55
2022-09-12T08:51:34.689Z,59.86
2022-09-12T08:52:49.864Z,60.83
2022-09-12T08:53:51.624Z,59.27
2022-09-12T08:54:56.407Z,60.25
2022-09-12T08:56:01.233Z,61.27
2022-09-12T08:57:03.847Z,60.50
2022-09-12T08:58:27.301Z,61.36
2022-09-12T08:59:37.667Z,60.77
2022-09-12T09:00:47.596Z,60.51
2022-09-12T09:01:53.682Z,61.08
2022-09-12T09:03:04.457Z,60.64
2022-09-12T09:04:21.649Z,60.76
2022-09-12T09:06:03.387Z,60.40
2022-09-12T09:07:17.639Z,60.51
2022-09-12T09:08:35.561Z,60.58
2022-09-12T09:09:37.151Z,60.46
2022-09-12T09:11:06.250Z,60.08
2022-09-12T09:12:46.285Z,58.23
2022-09-12T09:14:45.459Z,57.94
2022-09-12T09:16:08.739Z,58.25
2022-09-12T09:17:27.959Z,59.82
2022-09-12T09:18:31.869Z,60.13
2022-09-12T09:19:39.165Z,60.04
2022-09-12T09:21:05.168Z,60.24
2022-09-12T09:22:12.711Z,61.01
2022-09-12T09:23:41.819Z,59.32
2022-09-12T09:24:46.079Z,60.08
2022-09-12T09:25:47.660Z,59.96
2022-09-12T09:26:58.547Z,58.65
2022-09-12T09:28:09.708Z,58.90
2022-09-12T09:29:19.063Z,58.11
2022-09-12T09:30:21.666Z,59.07
2022-09-12T09:31:24.578Z,58.02
2022-09-12T09:32:27.844Z,59.44
2022-09-12T09:33:33.639Z,59.91
2022-09-12T09:34:35.384Z,60.57
2022-09-12T09:35:47.293Z,58.19
2022-09-12T09:36:49.833Z,59.48
2022-09-12T09:38:00.331Z,59.80
2022-09-12T09:39:06.731Z,59.63
2022-09-12T09:40:22.924Z,58.30
2022-09-12T09:41:30.361Z,58.59
2022-09-12T09:42:50.247Z,59.00
2022-09-12T09:43:51.827Z,57.94
2022-09-12T09:44:54.227Z,58.12
2022-09-12T09:45:56.961Z,57.67
2022-09-12T09:46:59.013Z,58.08
2022-09-12T09:48:29.269Z,59.13
2022-09-12T09:49:32.143Z,59.27
2022-09-12T09:50:33.906Z,59.23
2022-09-12T09:51:37.102Z,59.23
2022-09-12T09:52:39.653Z,59.69
2022-09-12T09:53:43.318Z,59.61
2022-09-12T09:54:49.595Z,60.38
2022-09-12T09:55:51.229Z,60.35
2022-09-12T09:56:52.848Z,60.51
2022-09-12T09:57:54.424Z,60.84
2022-09-12T09:58:56.062Z,60.12
2022-09-12T09:59:57.751Z,61.25
2022-09-12T10:01:00.823Z,60.82
2022-09-12T10:02:24.402Z,61.71
2022-09-12T10:03:30.312Z,61.84
2022-09-12T10:04:40.584Z,62.06
2022-09-12T10:06:18.795Z,61.61
2022-09-12T10:07:21.775Z,60.97
2022-09-12T10:08:28.790Z,60.28
2022-09-12T10:09:34.462Z,60.31
2022-09-12T10:10:36.131Z,60.02
2022-09-12T10:11:37.707Z,60.16
2022-09-12T10:12:39.269Z,60.54
2022-09-12T10:13:42.114Z,61.14
2022-09-12T10:14:43.798Z,61.22
2022-09-12T10:15:57.182Z,61.24
2022-09-12T10:16:59.667Z,61.52
2022-09-12T10:18:03.115Z,61.92
2022-09-12T10:19:04.695Z,62.18
2022-09-12T10:20:21.847Z,61.79
2022-09-12T10:21:40.983Z,62.11
2022-09-12T10:22:42.820Z,61.63
2022-09-12T10:23:44.446Z,61.81
2022-09-12T10:25:04.186Z,62.39
2022-09-12T10:26:09.873Z,62.47
2022-09-12T10:27:35.696Z,62.83
2022-09-12T10:28:53.615Z,62.86
2022-09-12T10:29:55.220Z,63.07
2022-09-12T10:30:57.001Z,62.92
2022-09-12T10:32:00.124Z,62.62
2022-09-12T10:33:06.566Z,62.26
2022-09-12T10:34:21.226Z,62.13
2022-09-12T10:35:31.053Z,62.58
2022-09-12T10:36:36.779Z,62.53
2022-09-12T10:37:40.446Z,62.67
2022-09-12T10:38:48.016Z,62.03
2022-09-12T10:39:52.532Z,62.00
2022-09-12T10:41:07.670Z,62.00
2022-09-12T10:42:14.248Z,62.06
2022-09-12T10:43:33.606Z,61.07
2022-09-12T10:44:35.373Z,61.29
2022-09-12T10:45:37.511Z,61.73
2022-09-12T10:46:40.363Z,62.14
2022-09-12T10:47:41.988Z,61.56
2022-09-12T10:48:47.222Z,61.68
2022-09-12T10:49:51.097Z,61.50
2022-09-12T10:50:52.700Z,61.99
2022-09-12T10:51:54.681Z,61.83
2022-09-12T10:53:19.713Z,61.62
2022-09-12T10:54:26.196Z,61.99
2022-09-12T10:55:30.374Z,61.92
2022-09-12T10:57:01.431Z,61.91
2022-09-12T10:58:18.679Z,62.08
2022-09-12T10:59:46.068Z,62.86
2022-09-12T11:00:48.123Z,63.30
2022-09-12T11:02:10.123Z,63.08
2022-09-12T11:03:25.015Z,63.70
2022-09-12T11:04:37.315Z,64.36
2022-09-12T11:05:42.882Z,65.69
2022-09-12T11:07:14.508Z,66.14
2022-09-12T11:08:37.388Z,66.72
2022-09-12T11:09:47.997Z,66.39
2022-09-12T11:10:49.676Z,66.61
2022-09-12T11:12:06.152Z,66.35
2022-09-12T11:13:16.742Z,67.89
2022-09-12T11:14:28.545Z,67.57
2022-09-12T11:15:38.772Z,66.67
2022-09-12T11:16:52.950Z,66.93
2022-09-12T11:18:02.898Z,66.36
2022-09-12T11:19:32.063Z,65.93
2022-09-12T11:20:33.580Z,66.07
2022-09-12T11:21:57.247Z,65.40
2022-09-12T11:23:17.754Z,65.18
2022-09-12T11:24:37.893Z,64.99
2022-09-12T11:25:57.192Z,65.24
2022-09-12T11:27:06.384Z,65.12
2022-09-12T11:28:15.111Z,64.73
2022-09-12T11:29:41.308Z,64.30
2022-09-12T11:30:51.885Z,64.17
2022-09-12T11:32:02.086Z,64.18
2022-09-12T11:33:05.749Z,63.99
2022-09-12T11:34:10.821Z,63.53
2022-09-12T11:35:17.565Z,64.07
2022-09-12T11:36:28.000Z,63.65
2022-09-12T11:38:03.578Z,64.30
2022-09-12T11:39:23.577Z,63.55
2022-09-12T11:40:27.953Z,63.93
2022-09-12T11:41:34.917Z,64.40
2022-09-12T11:42:37.548Z,63.87
2022-09-12T11:44:01.470Z,62.99
2022-09-12T11:45:08.219Z,63.34
2022-09-12T11:46:12.466Z,63.25
2022-09-12T11:47:14.585Z,64.25
2022-09-12T11:48:40.124Z,63.87
2022-09-12T11:49:46.101Z,63.75
2022-09-12T11:50:47.673Z,64.30
2022-09-12T11:51:55.472Z,64.04
2022-09-12T11:53:17.473Z,64.68
2022-09-12T11:54:37.267Z,64.74
2022-09-12T11:55:52.785Z,64.56
2022-09-12T11:57:23.685Z,64.75
2022-09-12T11:58:26.989Z,65.32
2022-09-12T11:59:43.447Z,64.87
2022-09-12T12:00:51.190Z,65.14
2022-09-12T12:01:53.605Z,65.50
2022-09-12T12:03:07.242Z,64.79
2022-09-12T12:04:12.159Z,64.98
2022-09-12T12:05:26.025Z,65.12
2022-09-12T12:06:31.696Z,64.92
2022-09-12T12:07:45.621Z,65.69
2022-09-12T12:08:48.151Z,65.11
2022-09-12T12:09:51.663Z,65.39
2022-09-12T12:11:00.401Z,65.13
2022-09-12T12:12:06.643Z,64.25
2022-09-12T12:13:22.379Z,64.68
2022-09-12T12:14:28.134Z,64.61
2022-09-12T12:15:29.807Z,64.43
2022-09-12T12:16:33.335Z,64.47
2022-09-12T12:17:34.908Z,63.88
2022-09-12T12:18:37.570Z,64.33
2022-09-12T12:19:39.182Z,64.36
2022-09-12T12:20:40.830Z,63.89
2022-09-12T12:21:48.577Z,64.12
2022-09-12T12:22:53.389Z,63.75
2022-09-12T12:24:10.213Z,64.01
2022-09-12T12:25:11.733Z,62.95
2022-09-12T12:26:39.641Z,63.07
2022-09-12T12:27:54.620Z,63.02
2022-09-12T12:28:58.133Z,63.66
2022-09-12T12:29:59.703Z,61.77
2022-09-12T12:31:01.993Z,62.47
2022-09-12T12:32:06.559Z,63.08
2022-09-12T12:33:12.962Z,62.03
2022-09-12T12:34:26.911Z,62.07
2022-09-12T12:35:57.183Z,60.57
2022-09-12T12:37:00.721Z,60.78
2022-09-12T12:38:04.475Z,60.98
2022-09-12T12:39:41.146Z,60.38
2022-09-12T12:40:42.758Z,59.60
2022-09-12T12:41:45.361Z,59.78
2022-09-12T12:42:46.988Z,59.96
2022-09-12T12:43:52.274Z,60.77
2022-09-12T12:44:53.917Z,61.04
2022-09-12T12:46:04.289Z,61.96
2022-09-12T12:47:15.320Z,62.82
2022-09-12T12:48:17.071Z,62.81
2022-09-12T12:49:24.629Z,62.80
2022-09-12T12:50:27.234Z,63.58
2022-09-12T12:51:28.869Z,63.46
2022-09-12T12:52:31.728Z,63.42
2022-09-12T12:53:33.419Z,62.92
2022-09-12T12:54:48.879Z,62.28
2022-09-12T12:55:52.111Z,61.02
2022-09-12T12:57:11.977Z,61.61
2022-09-12T12:58:42.743Z,61.69
2022-09-12T12:59:51.942Z,62.03
2022-09-12T13:01:20.787Z,61.07
2022-09-12T13:02:33.695Z,61.41
2022-09-12T13:03:36.230Z,61.14
2022-09-12T13:04:37.938Z,59.97
2022-09-12T13:05:46.598Z,59.21
2022-09-12T13:07:08.479Z,60.26
2022-09-12T13:08:17.335Z,61.13
2022-09-12T13:09:52.934Z,61.07
2022-09-12T13:11:15.588Z,61.41
2022-09-12T13:12:25.553Z,61.52
2022-09-12T13:13:32.934Z,62.37
2022-09-12T13:14:46.980Z,62.34
2022-09-12T13:15:50.580Z,62.39
2022-09-12T13:16:54.351Z,61.88
2022-09-12T13:17:59.180Z,61.84
2022-09-12T13:19:23.318Z,61.47
2022-09-12T13:20:28.669Z,62.06
2022-09-12T13:21:30.761Z,61.59
2022-09-12T13:22:46.724Z,60.51
2022-09-12T13:24:05.364Z,60.58
2022-09-12T13:25:36.629Z,59.43
2022-09-12T13:26:41.905Z,59.80
2022-09-12T13:28:02.707Z,59.57
2022-09-12T13:29:31.201Z,59.08
2022-09-12T13:30:34.710Z,58.68
2022-09-12T13:31:36.307Z,58.78
2022-09-12T13:32:38.207Z,58.77
2022-09-12T13:33:48.177Z,59.27
2022-09-12T13:34:54.920Z,58.98
2022-09-12T13:36:18.344Z,57.71
2022-09-12T13:37:28.644Z,58.99
2022-09-12T13:38:43.346Z,58.23
2022-09-12T13:39:49.900Z,58.08
2022-09-12T13:41:22.203Z,58.54
2022-09-12T13:42:49.574Z,58.45
2022-09-12T13:43:51.216Z,58.98
2022-09-12T13:45:15.680Z,58.30
2022-09-12T13:46:35.723Z,56.84
2022-09-12T13:47:42.365Z,56.82
2022-09-12T13:48:44.164Z,57.17
2022-09-12T13:49:45.745Z,56.07
2022-09-12T13:51:01.146Z,55.43
2022-09-12T13:52:10.220Z,56.36
2022-09-12T13:53:17.123Z,56.18
2022-09-12T13:54:23.844Z,55.93
2022-09-12T13:55:32.685Z,55.84
2022-09-12T13:56:34.397Z,56.32
2022-09-12T13:57:43.468Z,56.88
2022-09-12T13:58:54.055Z,57.00
2022-09-12T13:59:56.071Z,57.25
2022-09-12T14:01:14.368Z,57.46
2022-09-12T14:02:20.721Z,58.30
2022-09-12T14:03:49.054Z,57.47
2022-09-12T14:05:10.499Z,56.69
2022-09-12T14:06:12.831Z,57.67
2022-09-12T14:07:19.670Z,57.90
2022-09-12T14:08:23.057Z,57.79
2022-09-12T14:09:33.017Z,58.27
2022-09-12T14:10:39.371Z,57.70
2022-09-12T14:11:40.950Z,58.43
2022-09-12T14:12:44.020Z,58.59
2022-09-12T14:13:46.241Z,58.92
2022-09-12T14:14:50.011Z,58.38
2022-09-12T14:15:53.053Z,58.26
2022-09-12T14:16:55.037Z,58.28
2022-09-12T14:18:01.112Z,57.61
2022-09-12T14:19:02.960Z,57.78